sensor_id;sensor_type;location;lat;lon;timestamp;P1;durP1;ratioP1;P2;durP2;ratioP2
18048;SDS011;9149;47.002;8.604;2023-12-29T00:01:40;4.43;;;2.73;;
18048;SDS011;9149;47.002;8.604;2023-12-29T00:04:08;5.27;;;2.33;;
18048;SDS011;9149;47.002;8.604;2023-12-29T00:06:37;4.20;;;2.27;;
18048;SDS011;9149;47.002;8.604;2023-12-29T00:09:19;4.70;;;2.57;;
18048;SDS011;9149;47.002;8.604;2023-12-29T00:11:49;4.57;;;2.50;;
18048;SDS011;9149;47.002;8.604;2023-12-29T00:14:17;5.17;;;2.50;;
18048;SDS011;9149;47.002;8.604;2023-12-29T00:16:45;5.63;;;2.60;;
18048;SDS011;9149;47.002;8.604;2023-12-29T00:19:12;4.43;;;2.53;;
18048;SDS011;9149;47.002;8.604;2023-12-29T00:21:41;3.77;;;2.40;;
18048;SDS011;9149;47.002;8.604;2023-12-29T00:24:08;4.33;;;2.70;;
18048;SDS011;9149;47.002;8.604;2023-12-29T00:26:36;5.87;;;3.00;;
18048;SDS011;9149;47.002;8.604;2023-12-29T00:29:05;3.90;;;2.70;;
18048;SDS011;9149;47.002;8.604;2023-12-29T00:31:33;5.63;;;3.00;;
18048;SDS011;9149;47.002;8.604;2023-12-29T00:34:01;6.10;;;3.13;;
18048;SDS011;9149;47.002;8.604;2023-12-29T00:36:29;6.43;;;3.20;;
18048;SDS011;9149;47.002;8.604;2023-12-29T00:38:56;6.43;;;3.27;;
18048;SDS011;9149;47.002;8.604;2023-12-29T00:41:24;4.57;;;2.80;;
18048;SDS011;9149;47.002;8.604;2023-12-29T00:43:52;7.63;;;3.00;;
18048;SDS011;9149;47.002;8.604;2023-12-29T00:46:21;7.83;;;2.67;;
18048;SDS011;9149;47.002;8.604;2023-12-29T00:48:49;4.83;;;2.63;;
18048;SDS011;9149;47.002;8.604;2023-12-29T00:51:17;8.00;;;3.17;;
18048;SDS011;9149;47.002;8.604;2023-12-29T00:53:45;5.37;;;3.10;;
18048;SDS011;9149;47.002;8.604;2023-12-29T00:56:12;3.87;;;2.67;;
18048;SDS011;9149;47.002;8.604;2023-12-29T00:58:40;4.17;;;2.83;;
18048;SDS011;9149;47.002;8.604;2023-12-29T01:01:08;6.00;;;2.87;;
18048;SDS011;9149;47.002;8.604;2023-12-29T01:03:39;5.23;;;2.97;;
18048;SDS011;9149;47.002;8.604;2023-12-29T01:06:07;4.20;;;3.03;;
18048;SDS011;9149;47.002;8.604;2023-12-29T01:08:35;7.23;;;3.23;;
18048;SDS011;9149;47.002;8.604;2023-12-29T01:11:03;4.33;;;2.97;;
18048;SDS011;9149;47.002;8.604;2023-12-29T01:13:31;9.50;;;3.07;;
18048;SDS011;9149;47.002;8.604;2023-12-29T01:15:58;6.70;;;2.90;;
18048;SDS011;9149;47.002;8.604;2023-12-29T01:18:26;4.63;;;2.67;;
18048;SDS011;9149;47.002;8.604;2023-12-29T01:20:55;5.20;;;2.90;;
18048;SDS011;9149;47.002;8.604;2023-12-29T01:23:23;4.57;;;2.70;;
18048;SDS011;9149;47.002;8.604;2023-12-29T01:25:50;5.60;;;2.80;;
18048;SDS011;9149;47.002;8.604;2023-12-29T01:28:18;5.70;;;2.93;;
18048;SDS011;9149;47.002;8.604;2023-12-29T01:30:46;7.53;;;3.03;;
18048;SDS011;9149;47.002;8.604;2023-12-29T01:33:14;4.73;;;2.73;;
18048;SDS011;9149;47.002;8.604;2023-12-29T01:35:42;9.10;;;2.60;;
18048;SDS011;9149;47.002;8.604;2023-12-29T01:38:11;5.00;;;2.50;;
18048;SDS011;9149;47.002;8.604;2023-12-29T01:40:42;3.90;;;2.73;;
18048;SDS011;9149;47.002;8.604;2023-12-29T01:43:10;3.83;;;2.63;;
18048;SDS011;9149;47.002;8.604;2023-12-29T01:45:38;4.93;;;2.77;;
18048;SDS011;9149;47.002;8.604;2023-12-29T01:48:18;5.00;;;2.73;;
18048;SDS011;9149;47.002;8.604;2023-12-29T01:50:46;3.37;;;2.57;;
18048;SDS011;9149;47.002;8.604;2023-12-29T01:53:15;5.37;;;3.00;;
18048;SDS011;9149;47.002;8.604;2023-12-29T01:55:46;3.83;;;2.57;;
18048;SDS011;9149;47.002;8.604;2023-12-29T01:58:13;5.70;;;2.97;;
18048;SDS011;9149;47.002;8.604;2023-12-29T02:00:41;4.23;;;2.73;;
18048;SDS011;9149;47.002;8.604;2023-12-29T02:03:09;6.33;;;2.90;;
18048;SDS011;9149;47.002;8.604;2023-12-29T02:05:37;4.60;;;2.33;;
18048;SDS011;9149;47.002;8.604;2023-12-29T02:08:05;5.07;;;2.53;;
18048;SDS011;9149;47.002;8.604;2023-12-29T02:10:36;7.90;;;2.70;;
18048;SDS011;9149;47.002;8.604;2023-12-29T02:13:04;3.50;;;2.40;;
18048;SDS011;9149;47.002;8.604;2023-12-29T02:15:32;6.40;;;2.40;;
18048;SDS011;9149;47.002;8.604;2023-12-29T02:18:02;4.33;;;2.70;;
18048;SDS011;9149;47.002;8.604;2023-12-29T02:20:30;5.77;;;2.83;;
18048;SDS011;9149;47.002;8.604;2023-12-29T02:22:59;3.90;;;2.77;;
18048;SDS011;9149;47.002;8.604;2023-12-29T02:25:28;9.83;;;2.60;;
18048;SDS011;9149;47.002;8.604;2023-12-29T02:27:57;3.87;;;2.37;;
18048;SDS011;9149;47.002;8.604;2023-12-29T02:30:28;5.20;;;2.60;;
18048;SDS011;9149;47.002;8.604;2023-12-29T02:35:43;6.73;;;2.60;;
18048;SDS011;9149;47.002;8.604;2023-12-29T02:38:12;4.63;;;2.83;;
18048;SDS011;9149;47.002;8.604;2023-12-29T02:40:41;3.73;;;2.30;;
18048;SDS011;9149;47.002;8.604;2023-12-29T02:43:09;4.93;;;2.77;;
18048;SDS011;9149;47.002;8.604;2023-12-29T02:45:37;6.93;;;2.50;;
18048;SDS011;9149;47.002;8.604;2023-12-29T02:48:05;7.40;;;3.13;;
18048;SDS011;9149;47.002;8.604;2023-12-29T02:50:33;4.63;;;2.73;;
18048;SDS011;9149;47.002;8.604;2023-12-29T02:53:00;5.83;;;3.23;;
18048;SDS011;9149;47.002;8.604;2023-12-29T02:55:28;4.60;;;2.80;;
18048;SDS011;9149;47.002;8.604;2023-12-29T02:57:57;5.27;;;2.87;;
18048;SDS011;9149;47.002;8.604;2023-12-29T03:00:25;3.80;;;2.70;;
18048;SDS011;9149;47.002;8.604;2023-12-29T03:02:53;6.73;;;2.73;;
18048;SDS011;9149;47.002;8.604;2023-12-29T03:05:21;5.17;;;3.10;;
18048;SDS011;9149;47.002;8.604;2023-12-29T03:07:49;5.10;;;2.93;;
18048;SDS011;9149;47.002;8.604;2023-12-29T03:10:17;4.60;;;2.80;;
18048;SDS011;9149;47.002;8.604;2023-12-29T03:12:45;5.43;;;3.20;;
18048;SDS011;9149;47.002;8.604;2023-12-29T03:15:14;6.43;;;2.80;;
18048;SDS011;9149;47.002;8.604;2023-12-29T03:17:42;4.57;;;2.87;;
18048;SDS011;9149;47.002;8.604;2023-12-29T03:24:10;5.73;;;3.40;;
18048;SDS011;9149;47.002;8.604;2023-12-29T03:26:38;6.87;;;3.80;;
18048;SDS011;9149;47.002;8.604;2023-12-29T03:29:06;4.93;;;3.10;;
18048;SDS011;9149;47.002;8.604;2023-12-29T03:31:35;6.10;;;3.57;;
18048;SDS011;9149;47.002;8.604;2023-12-29T03:34:02;5.73;;;3.53;;
18048;SDS011;9149;47.002;8.604;2023-12-29T03:36:30;3.93;;;3.00;;
18048;SDS011;9149;47.002;8.604;2023-12-29T03:38:58;4.63;;;3.27;;
18048;SDS011;9149;47.002;8.604;2023-12-29T03:41:27;6.77;;;3.23;;
18048;SDS011;9149;47.002;8.604;2023-12-29T03:43:55;5.07;;;3.40;;
18048;SDS011;9149;47.002;8.604;2023-12-29T03:46:23;4.90;;;3.30;;
18048;SDS011;9149;47.002;8.604;2023-12-29T03:48:52;5.90;;;3.47;;
18048;SDS011;9149;47.002;8.604;2023-12-29T03:51:20;6.47;;;3.63;;
18048;SDS011;9149;47.002;8.604;2023-12-29T03:53:48;6.17;;;3.23;;
18048;SDS011;9149;47.002;8.604;2023-12-29T03:56:16;6.20;;;3.40;;
18048;SDS011;9149;47.002;8.604;2023-12-29T03:58:45;6.13;;;3.20;;
18048;SDS011;9149;47.002;8.604;2023-12-29T04:01:14;4.57;;;3.27;;
18048;SDS011;9149;47.002;8.604;2023-12-29T04:03:42;9.60;;;3.20;;
18048;SDS011;9149;47.002;8.604;2023-12-29T04:06:13;5.20;;;3.17;;
18048;SDS011;9149;47.002;8.604;2023-12-29T04:08:40;4.87;;;3.10;;
18048;SDS011;9149;47.002;8.604;2023-12-29T04:11:08;5.27;;;3.47;;
18048;SDS011;9149;47.002;8.604;2023-12-29T04:13:36;14.80;;;3.40;;
18048;SDS011;9149;47.002;8.604;2023-12-29T04:16:04;4.70;;;3.00;;
18048;SDS011;9149;47.002;8.604;2023-12-29T04:18:32;5.60;;;3.57;;
18048;SDS011;9149;47.002;8.604;2023-12-29T04:21:00;5.90;;;3.30;;
18048;SDS011;9149;47.002;8.604;2023-12-29T04:23:29;6.90;;;3.50;;
18048;SDS011;9149;47.002;8.604;2023-12-29T04:25:57;4.90;;;3.10;;
18048;SDS011;9149;47.002;8.604;2023-12-29T04:28:24;4.80;;;3.10;;
18048;SDS011;9149;47.002;8.604;2023-12-29T04:30:54;4.43;;;3.20;;
18048;SDS011;9149;47.002;8.604;2023-12-29T04:33:22;5.87;;;3.00;;
18048;SDS011;9149;47.002;8.604;2023-12-29T04:35:49;10.20;;;3.60;;
18048;SDS011;9149;47.002;8.604;2023-12-29T04:38:17;5.20;;;3.30;;
18048;SDS011;9149;47.002;8.604;2023-12-29T04:40:47;4.53;;;3.07;;
18048;SDS011;9149;47.002;8.604;2023-12-29T04:43:15;6.33;;;3.33;;
18048;SDS011;9149;47.002;8.604;2023-12-29T04:45:42;5.90;;;3.20;;
18048;SDS011;9149;47.002;8.604;2023-12-29T04:48:10;6.23;;;3.57;;
18048;SDS011;9149;47.002;8.604;2023-12-29T04:50:38;6.50;;;3.40;;
18048;SDS011;9149;47.002;8.604;2023-12-29T04:53:06;6.20;;;3.40;;
18048;SDS011;9149;47.002;8.604;2023-12-29T04:55:34;5.13;;;3.10;;
18048;SDS011;9149;47.002;8.604;2023-12-29T04:58:02;9.03;;;3.30;;
18048;SDS011;9149;47.002;8.604;2023-12-29T05:00:31;7.90;;;3.53;;
18048;SDS011;9149;47.002;8.604;2023-12-29T05:02:58;5.73;;;2.90;;
18048;SDS011;9149;47.002;8.604;2023-12-29T05:05:26;4.87;;;2.93;;
18048;SDS011;9149;47.002;8.604;2023-12-29T05:07:54;5.33;;;2.70;;
18048;SDS011;9149;47.002;8.604;2023-12-29T05:10:22;4.83;;;2.63;;
18048;SDS011;9149;47.002;8.604;2023-12-29T05:12:49;4.90;;;2.77;;
18048;SDS011;9149;47.002;8.604;2023-12-29T05:15:18;5.77;;;2.83;;
18048;SDS011;9149;47.002;8.604;2023-12-29T05:17:46;4.90;;;2.90;;
18048;SDS011;9149;47.002;8.604;2023-12-29T05:20:14;4.57;;;2.70;;
18048;SDS011;9149;47.002;8.604;2023-12-29T05:22:42;4.87;;;2.70;;
18048;SDS011;9149;47.002;8.604;2023-12-29T05:25:09;6.13;;;3.10;;
18048;SDS011;9149;47.002;8.604;2023-12-29T05:27:37;6.77;;;3.40;;
18048;SDS011;9149;47.002;8.604;2023-12-29T05:30:05;5.13;;;3.30;;
18048;SDS011;9149;47.002;8.604;2023-12-29T05:32:34;4.50;;;2.83;;
18048;SDS011;9149;47.002;8.604;2023-12-29T05:35:03;4.47;;;2.80;;
18048;SDS011;9149;47.002;8.604;2023-12-29T05:37:31;6.53;;;3.13;;
18048;SDS011;9149;47.002;8.604;2023-12-29T05:39:58;8.57;;;2.90;;
18048;SDS011;9149;47.002;8.604;2023-12-29T05:42:26;8.20;;;3.00;;
18048;SDS011;9149;47.002;8.604;2023-12-29T05:44:54;4.00;;;2.20;;
18048;SDS011;9149;47.002;8.604;2023-12-29T05:47:21;12.60;;;3.00;;
18048;SDS011;9149;47.002;8.604;2023-12-29T05:49:50;5.07;;;3.07;;
18048;SDS011;9149;47.002;8.604;2023-12-29T05:52:19;5.17;;;3.10;;
18048;SDS011;9149;47.002;8.604;2023-12-29T05:54:46;6.13;;;3.43;;
18048;SDS011;9149;47.002;8.604;2023-12-29T05:57:16;4.40;;;2.70;;
18048;SDS011;9149;47.002;8.604;2023-12-29T05:59:43;5.03;;;2.60;;
18048;SDS011;9149;47.002;8.604;2023-12-29T06:02:11;3.83;;;2.60;;
18048;SDS011;9149;47.002;8.604;2023-12-29T06:04:39;3.80;;;2.80;;
18048;SDS011;9149;47.002;8.604;2023-12-29T06:07:08;3.07;;;2.50;;
18048;SDS011;9149;47.002;8.604;2023-12-29T06:09:35;4.03;;;2.60;;
18048;SDS011;9149;47.002;8.604;2023-12-29T06:12:03;6.07;;;3.10;;
18048;SDS011;9149;47.002;8.604;2023-12-29T06:14:31;3.80;;;2.70;;
18048;SDS011;9149;47.002;8.604;2023-12-29T06:16:59;4.93;;;2.40;;
18048;SDS011;9149;47.002;8.604;2023-12-29T06:19:27;4.37;;;2.93;;
18048;SDS011;9149;47.002;8.604;2023-12-29T06:21:55;4.03;;;2.83;;
18048;SDS011;9149;47.002;8.604;2023-12-29T06:24:24;4.93;;;2.70;;
18048;SDS011;9149;47.002;8.604;2023-12-29T06:26:51;3.37;;;2.50;;
18048;SDS011;9149;47.002;8.604;2023-12-29T06:29:19;4.67;;;2.43;;
18048;SDS011;9149;47.002;8.604;2023-12-29T06:31:47;8.23;;;2.50;;
18048;SDS011;9149;47.002;8.604;2023-12-29T06:34:15;3.47;;;2.27;;
18048;SDS011;9149;47.002;8.604;2023-12-29T06:36:43;3.37;;;2.20;;
18048;SDS011;9149;47.002;8.604;2023-12-29T06:39:10;2.37;;;1.70;;
18048;SDS011;9149;47.002;8.604;2023-12-29T06:41:39;3.70;;;2.10;;
18048;SDS011;9149;47.002;8.604;2023-12-29T06:44:07;6.00;;;2.27;;
18048;SDS011;9149;47.002;8.604;2023-12-29T06:46:36;4.70;;;2.63;;
18048;SDS011;9149;47.002;8.604;2023-12-29T06:49:04;4.90;;;2.67;;
18048;SDS011;9149;47.002;8.604;2023-12-29T06:51:32;4.20;;;2.20;;
18048;SDS011;9149;47.002;8.604;2023-12-29T06:54:00;5.30;;;2.77;;
18048;SDS011;9149;47.002;8.604;2023-12-29T06:56:28;5.33;;;2.53;;
18048;SDS011;9149;47.002;8.604;2023-12-29T06:58:57;2.80;;;1.90;;
18048;SDS011;9149;47.002;8.604;2023-12-29T07:01:25;4.97;;;2.30;;
18048;SDS011;9149;47.002;8.604;2023-12-29T07:03:53;5.80;;;2.37;;
18048;SDS011;9149;47.002;8.604;2023-12-29T07:06:21;3.57;;;2.23;;
18048;SDS011;9149;47.002;8.604;2023-12-29T07:08:49;2.80;;;1.80;;
18048;SDS011;9149;47.002;8.604;2023-12-29T07:11:16;3.93;;;2.10;;
18048;SDS011;9149;47.002;8.604;2023-12-29T07:13:44;3.90;;;2.33;;
18048;SDS011;9149;47.002;8.604;2023-12-29T07:16:13;3.50;;;2.53;;
18048;SDS011;9149;47.002;8.604;2023-12-29T07:18:41;5.73;;;2.83;;
18048;SDS011;9149;47.002;8.604;2023-12-29T07:21:09;4.93;;;2.73;;
18048;SDS011;9149;47.002;8.604;2023-12-29T07:23:40;5.50;;;2.83;;
18048;SDS011;9149;47.002;8.604;2023-12-29T07:26:08;4.10;;;2.73;;
18048;SDS011;9149;47.002;8.604;2023-12-29T07:28:36;4.30;;;2.77;;
18048;SDS011;9149;47.002;8.604;2023-12-29T07:31:04;7.47;;;3.60;;
18048;SDS011;9149;47.002;8.604;2023-12-29T07:33:33;4.30;;;2.47;;
18048;SDS011;9149;47.002;8.604;2023-12-29T07:36:01;12.33;;;3.37;;
18048;SDS011;9149;47.002;8.604;2023-12-29T07:38:29;5.87;;;3.30;;
18048;SDS011;9149;47.002;8.604;2023-12-29T07:40:56;6.50;;;3.40;;
18048;SDS011;9149;47.002;8.604;2023-12-29T07:43:24;9.77;;;3.47;;
18048;SDS011;9149;47.002;8.604;2023-12-29T07:45:52;8.13;;;3.53;;
18048;SDS011;9149;47.002;8.604;2023-12-29T07:48:19;9.40;;;3.73;;
18048;SDS011;9149;47.002;8.604;2023-12-29T07:50:48;3.77;;;2.83;;
18048;SDS011;9149;47.002;8.604;2023-12-29T07:53:16;5.90;;;3.40;;
18048;SDS011;9149;47.002;8.604;2023-12-29T07:55:44;6.53;;;3.17;;
18048;SDS011;9149;47.002;8.604;2023-12-29T07:58:13;12.07;;;5.50;;
18048;SDS011;9149;47.002;8.604;2023-12-29T08:00:42;21.63;;;9.17;;
18048;SDS011;9149;47.002;8.604;2023-12-29T08:03:10;18.73;;;6.60;;
18048;SDS011;9149;47.002;8.604;2023-12-29T08:05:37;9.13;;;5.00;;
18048;SDS011;9149;47.002;8.604;2023-12-29T08:08:06;6.70;;;3.03;;
18048;SDS011;9149;47.002;8.604;2023-12-29T08:10:34;6.07;;;3.53;;
18048;SDS011;9149;47.002;8.604;2023-12-29T08:13:02;5.63;;;3.03;;
18048;SDS011;9149;47.002;8.604;2023-12-29T08:15:30;5.70;;;3.53;;
18048;SDS011;9149;47.002;8.604;2023-12-29T08:17:58;6.30;;;3.40;;
18048;SDS011;9149;47.002;8.604;2023-12-29T08:20:26;7.73;;;3.90;;
18048;SDS011;9149;47.002;8.604;2023-12-29T08:22:53;6.20;;;3.63;;
18048;SDS011;9149;47.002;8.604;2023-12-29T08:25:22;5.90;;;3.57;;
18048;SDS011;9149;47.002;8.604;2023-12-29T08:27:50;7.13;;;3.60;;
18048;SDS011;9149;47.002;8.604;2023-12-29T08:30:18;6.80;;;3.30;;
18048;SDS011;9149;47.002;8.604;2023-12-29T08:32:45;8.90;;;3.70;;
18048;SDS011;9149;47.002;8.604;2023-12-29T08:35:13;5.70;;;3.57;;
18048;SDS011;9149;47.002;8.604;2023-12-29T08:37:41;8.07;;;3.60;;
18048;SDS011;9149;47.002;8.604;2023-12-29T08:40:09;5.40;;;3.07;;
18048;SDS011;9149;47.002;8.604;2023-12-29T08:42:38;5.27;;;3.43;;
18048;SDS011;9149;47.002;8.604;2023-12-29T08:45:06;6.97;;;4.03;;
18048;SDS011;9149;47.002;8.604;2023-12-29T08:47:35;8.63;;;3.60;;
18048;SDS011;9149;47.002;8.604;2023-12-29T08:50:03;4.77;;;3.23;;
18048;SDS011;9149;47.002;8.604;2023-12-29T08:52:31;7.60;;;3.50;;
18048;SDS011;9149;47.002;8.604;2023-12-29T08:54:59;7.33;;;3.33;;
18048;SDS011;9149;47.002;8.604;2023-12-29T08:57:27;5.50;;;3.30;;
18048;SDS011;9149;47.002;8.604;2023-12-29T08:59:56;6.57;;;3.50;;
18048;SDS011;9149;47.002;8.604;2023-12-29T09:02:23;5.53;;;3.33;;
18048;SDS011;9149;47.002;8.604;2023-12-29T09:04:51;5.23;;;3.23;;
18048;SDS011;9149;47.002;8.604;2023-12-29T09:07:19;5.87;;;4.00;;
18048;SDS011;9149;47.002;8.604;2023-12-29T09:09:46;7.77;;;3.63;;
18048;SDS011;9149;47.002;8.604;2023-12-29T09:12:14;5.57;;;3.00;;
18048;SDS011;9149;47.002;8.604;2023-12-29T09:14:42;6.50;;;3.23;;
18048;SDS011;9149;47.002;8.604;2023-12-29T09:17:11;5.20;;;2.80;;
18048;SDS011;9149;47.002;8.604;2023-12-29T09:19:38;4.27;;;2.80;;
18048;SDS011;9149;47.002;8.604;2023-12-29T09:22:07;5.23;;;3.10;;
18048;SDS011;9149;47.002;8.604;2023-12-29T09:24:35;13.00;;;3.10;;
18048;SDS011;9149;47.002;8.604;2023-12-29T09:27:02;5.90;;;3.37;;
18048;SDS011;9149;47.002;8.604;2023-12-29T09:29:31;21.87;;;3.73;;
18048;SDS011;9149;47.002;8.604;2023-12-29T09:31:58;4.83;;;3.33;;
18048;SDS011;9149;47.002;8.604;2023-12-29T09:34:27;5.00;;;3.07;;
18048;SDS011;9149;47.002;8.604;2023-12-29T09:36:55;9.13;;;3.00;;
18048;SDS011;9149;47.002;8.604;2023-12-29T09:39:23;5.60;;;3.40;;
18048;SDS011;9149;47.002;8.604;2023-12-29T09:41:51;4.50;;;2.77;;
18048;SDS011;9149;47.002;8.604;2023-12-29T09:44:20;7.87;;;3.30;;
18048;SDS011;9149;47.002;8.604;2023-12-29T09:46:48;7.30;;;3.43;;
18048;SDS011;9149;47.002;8.604;2023-12-29T09:49:17;7.70;;;3.00;;
18048;SDS011;9149;47.002;8.604;2023-12-29T09:51:47;4.68;;;2.92;;
18048;SDS011;9149;47.002;8.604;2023-12-29T09:54:15;8.10;;;3.85;;
18048;SDS011;9149;47.002;8.604;2023-12-29T09:56:43;9.47;;;3.43;;
18048;SDS011;9149;47.002;8.604;2023-12-29T09:59:11;10.40;;;3.83;;
18048;SDS011;9149;47.002;8.604;2023-12-29T10:01:41;6.53;;;3.67;;
18048;SDS011;9149;47.002;8.604;2023-12-29T10:04:09;4.75;;;3.22;;
18048;SDS011;9149;47.002;8.604;2023-12-29T10:06:37;5.78;;;2.97;;
18048;SDS011;9149;47.002;8.604;2023-12-29T10:09:07;4.28;;;2.50;;
18048;SDS011;9149;47.002;8.604;2023-12-29T10:11:37;3.35;;;2.22;;
18048;SDS011;9149;47.002;8.604;2023-12-29T10:14:10;3.80;;;2.35;;
18048;SDS011;9149;47.002;8.604;2023-12-29T10:16:42;5.18;;;2.20;;
18048;SDS011;9149;47.002;8.604;2023-12-29T10:19:14;3.35;;;2.40;;
18048;SDS011;9149;47.002;8.604;2023-12-29T10:21:48;3.92;;;2.47;;
18048;SDS011;9149;47.002;8.604;2023-12-29T10:24:19;4.05;;;2.30;;
18048;SDS011;9149;47.002;8.604;2023-12-29T10:26:48;4.28;;;2.53;;
18048;SDS011;9149;47.002;8.604;2023-12-29T10:29:16;10.57;;;2.50;;
18048;SDS011;9149;47.002;8.604;2023-12-29T10:31:45;3.85;;;2.60;;
18048;SDS011;9149;47.002;8.604;2023-12-29T10:34:16;3.47;;;2.35;;
18048;SDS011;9149;47.002;8.604;2023-12-29T10:36:47;4.10;;;2.38;;
18048;SDS011;9149;47.002;8.604;2023-12-29T10:39:16;3.15;;;2.40;;
18048;SDS011;9149;47.002;8.604;2023-12-29T10:41:45;4.45;;;2.13;;
18048;SDS011;9149;47.002;8.604;2023-12-29T10:44:12;5.75;;;2.35;;
18048;SDS011;9149;47.002;8.604;2023-12-29T10:46:40;3.70;;;2.38;;
18048;SDS011;9149;47.002;8.604;2023-12-29T10:49:08;4.80;;;2.53;;
18048;SDS011;9149;47.002;8.604;2023-12-29T10:51:37;3.25;;;2.20;;
18048;SDS011;9149;47.002;8.604;2023-12-29T10:54:05;4.10;;;2.45;;
18048;SDS011;9149;47.002;8.604;2023-12-29T10:56:33;3.75;;;2.15;;
18048;SDS011;9149;47.002;8.604;2023-12-29T10:59:02;4.57;;;2.53;;
18048;SDS011;9149;47.002;8.604;2023-12-29T11:01:30;5.18;;;2.50;;
18048;SDS011;9149;47.002;8.604;2023-12-29T11:03:58;4.05;;;2.42;;
18048;SDS011;9149;47.002;8.604;2023-12-29T11:06:27;3.67;;;2.42;;
18048;SDS011;9149;47.002;8.604;2023-12-29T11:08:55;3.97;;;2.42;;
18048;SDS011;9149;47.002;8.604;2023-12-29T11:11:23;4.82;;;2.30;;
18048;SDS011;9149;47.002;8.604;2023-12-29T11:13:52;3.95;;;2.55;;
18048;SDS011;9149;47.002;8.604;2023-12-29T11:16:22;6.82;;;1.85;;
18048;SDS011;9149;47.002;8.604;2023-12-29T11:18:50;3.42;;;2.17;;
18048;SDS011;9149;47.002;8.604;2023-12-29T11:21:19;4.18;;;2.50;;
18048;SDS011;9149;47.002;8.604;2023-12-29T11:23:49;8.10;;;2.50;;
18048;SDS011;9149;47.002;8.604;2023-12-29T11:26:16;7.72;;;3.65;;
18048;SDS011;9149;47.002;8.604;2023-12-29T11:28:46;11.73;;;3.85;;
18048;SDS011;9149;47.002;8.604;2023-12-29T11:31:15;9.00;;;3.63;;
18048;SDS011;9149;47.002;8.604;2023-12-29T11:33:45;6.25;;;2.85;;
18048;SDS011;9149;47.002;8.604;2023-12-29T11:36:15;5.28;;;2.50;;
18048;SDS011;9149;47.002;8.604;2023-12-29T11:38:59;4.68;;;2.83;;
18048;SDS011;9149;47.002;8.604;2023-12-29T11:41:31;4.47;;;2.35;;
18048;SDS011;9149;47.002;8.604;2023-12-29T11:44:01;5.07;;;2.70;;
18048;SDS011;9149;47.002;8.604;2023-12-29T11:46:47;6.78;;;2.80;;
18048;SDS011;9149;47.002;8.604;2023-12-29T11:49:16;4.63;;;2.60;;
18048;SDS011;9149;47.002;8.604;2023-12-29T11:51:46;8.18;;;3.08;;
18048;SDS011;9149;47.002;8.604;2023-12-29T11:54:21;5.25;;;2.83;;
18048;SDS011;9149;47.002;8.604;2023-12-29T11:56:49;10.13;;;4.10;;
18048;SDS011;9149;47.002;8.604;2023-12-29T11:59:17;7.03;;;3.60;;
18048;SDS011;9149;47.002;8.604;2023-12-29T12:01:47;8.50;;;3.42;;
18048;SDS011;9149;47.002;8.604;2023-12-29T12:06:54;9.95;;;3.70;;
18048;SDS011;9149;47.002;8.604;2023-12-29T12:09:22;5.35;;;3.00;;
18048;SDS011;9149;47.002;8.604;2023-12-29T12:11:51;5.10;;;3.33;;
18048;SDS011;9149;47.002;8.604;2023-12-29T12:16:56;7.93;;;3.28;;
18048;SDS011;9149;47.002;8.604;2023-12-29T12:19:24;7.50;;;3.25;;
18048;SDS011;9149;47.002;8.604;2023-12-29T12:21:55;6.50;;;3.42;;
18048;SDS011;9149;47.002;8.604;2023-12-29T12:24:23;6.53;;;3.03;;
18048;SDS011;9149;47.002;8.604;2023-12-29T12:26:52;9.25;;;2.97;;
18048;SDS011;9149;47.002;8.604;2023-12-29T12:29:19;4.07;;;2.47;;
18048;SDS011;9149;47.002;8.604;2023-12-29T12:31:55;5.13;;;2.90;;
18048;SDS011;9149;47.002;8.604;2023-12-29T12:34:23;7.45;;;3.03;;
18048;SDS011;9149;47.002;8.604;2023-12-29T12:36:52;5.80;;;3.15;;
18048;SDS011;9149;47.002;8.604;2023-12-29T12:39:22;8.23;;;3.70;;
18048;SDS011;9149;47.002;8.604;2023-12-29T12:41:51;6.18;;;3.60;;
18048;SDS011;9149;47.002;8.604;2023-12-29T12:44:18;8.40;;;3.80;;
18048;SDS011;9149;47.002;8.604;2023-12-29T12:46:49;6.38;;;3.65;;
18048;SDS011;9149;47.002;8.604;2023-12-29T12:49:18;9.20;;;4.43;;
18048;SDS011;9149;47.002;8.604;2023-12-29T12:51:45;7.20;;;3.95;;
18048;SDS011;9149;47.002;8.604;2023-12-29T12:54:15;7.50;;;3.60;;
18048;SDS011;9149;47.002;8.604;2023-12-29T12:56:45;7.35;;;4.05;;
18048;SDS011;9149;47.002;8.604;2023-12-29T12:59:13;5.83;;;3.17;;
18048;SDS011;9149;47.002;8.604;2023-12-29T13:01:42;5.35;;;2.42;;
18048;SDS011;9149;47.002;8.604;2023-12-29T13:04:10;3.63;;;2.03;;
18048;SDS011;9149;47.002;8.604;2023-12-29T13:06:39;3.03;;;1.95;;
18048;SDS011;9149;47.002;8.604;2023-12-29T13:09:07;2.90;;;2.00;;
18048;SDS011;9149;47.002;8.604;2023-12-29T13:11:38;3.45;;;2.13;;
18048;SDS011;9149;47.002;8.604;2023-12-29T13:14:08;3.20;;;1.90;;
18048;SDS011;9149;47.002;8.604;2023-12-29T13:16:36;4.43;;;2.45;;
18048;SDS011;9149;47.002;8.604;2023-12-29T13:21:42;4.27;;;2.67;;
18048;SDS011;9149;47.002;8.604;2023-12-29T13:24:10;3.72;;;2.40;;
18048;SDS011;9149;47.002;8.604;2023-12-29T13:26:38;2.10;;;1.60;;
18048;SDS011;9149;47.002;8.604;2023-12-29T13:29:06;2.53;;;1.80;;
18048;SDS011;9149;47.002;8.604;2023-12-29T13:31:34;3.90;;;1.90;;
18048;SDS011;9149;47.002;8.604;2023-12-29T13:34:04;3.35;;;1.90;;
18048;SDS011;9149;47.002;8.604;2023-12-29T13:36:35;2.58;;;1.45;;
18048;SDS011;9149;47.002;8.604;2023-12-29T13:39:06;3.05;;;1.48;;
18048;SDS011;9149;47.002;8.604;2023-12-29T13:41:35;4.60;;;1.83;;
18048;SDS011;9149;47.002;8.604;2023-12-29T13:44:03;2.30;;;1.50;;
18048;SDS011;9149;47.002;8.604;2023-12-29T13:46:32;6.47;;;1.90;;
18048;SDS011;9149;47.002;8.604;2023-12-29T13:49:01;1.95;;;1.35;;
18048;SDS011;9149;47.002;8.604;2023-12-29T13:51:30;2.97;;;1.52;;
18048;SDS011;9149;47.002;8.604;2023-12-29T13:53:58;2.47;;;1.77;;
18048;SDS011;9149;47.002;8.604;2023-12-29T13:56:26;3.30;;;1.67;;
18048;SDS011;9149;47.002;8.604;2023-12-29T13:58:54;2.53;;;1.83;;
18048;SDS011;9149;47.002;8.604;2023-12-29T14:01:22;3.90;;;1.70;;
18048;SDS011;9149;47.002;8.604;2023-12-29T14:03:50;3.30;;;2.38;;
18048;SDS011;9149;47.002;8.604;2023-12-29T14:06:21;3.25;;;1.90;;
18048;SDS011;9149;47.002;8.604;2023-12-29T14:08:49;4.28;;;2.22;;
18048;SDS011;9149;47.002;8.604;2023-12-29T14:11:17;3.22;;;2.00;;
18048;SDS011;9149;47.002;8.604;2023-12-29T14:13:45;2.83;;;1.70;;
18048;SDS011;9149;47.002;8.604;2023-12-29T14:16:14;2.20;;;1.73;;
18048;SDS011;9149;47.002;8.604;2023-12-29T14:18:52;3.60;;;2.05;;
18048;SDS011;9149;47.002;8.604;2023-12-29T14:21:22;3.28;;;2.15;;
18048;SDS011;9149;47.002;8.604;2023-12-29T14:23:58;5.20;;;2.35;;
18048;SDS011;9149;47.002;8.604;2023-12-29T14:26:26;2.83;;;1.90;;
18048;SDS011;9149;47.002;8.604;2023-12-29T14:29:02;3.38;;;2.22;;
18048;SDS011;9149;47.002;8.604;2023-12-29T14:31:31;2.95;;;2.20;;
18048;SDS011;9149;47.002;8.604;2023-12-29T14:33:59;3.60;;;1.95;;
18048;SDS011;9149;47.002;8.604;2023-12-29T14:36:28;2.83;;;1.90;;
18048;SDS011;9149;47.002;8.604;2023-12-29T14:38:56;8.68;;;2.47;;
18048;SDS011;9149;47.002;8.604;2023-12-29T14:41:24;3.47;;;2.13;;
18048;SDS011;9149;47.002;8.604;2023-12-29T14:43:52;2.92;;;1.83;;
18048;SDS011;9149;47.002;8.604;2023-12-29T14:46:20;2.78;;;1.98;;
18048;SDS011;9149;47.002;8.604;2023-12-29T14:48:50;6.15;;;2.00;;
18048;SDS011;9149;47.002;8.604;2023-12-29T14:51:18;4.85;;;2.60;;
18048;SDS011;9149;47.002;8.604;2023-12-29T14:53:48;6.07;;;2.50;;
18048;SDS011;9149;47.002;8.604;2023-12-29T14:56:16;7.72;;;2.65;;
18048;SDS011;9149;47.002;8.604;2023-12-29T14:58:44;3.50;;;2.17;;
18048;SDS011;9149;47.002;8.604;2023-12-29T15:01:12;4.10;;;2.13;;
18048;SDS011;9149;47.002;8.604;2023-12-29T15:03:40;3.38;;;2.20;;
18048;SDS011;9149;47.002;8.604;2023-12-29T15:06:08;10.50;;;2.75;;
18048;SDS011;9149;47.002;8.604;2023-12-29T15:08:36;3.15;;;2.00;;
18048;SDS011;9149;47.002;8.604;2023-12-29T15:11:05;2.75;;;1.70;;
18048;SDS011;9149;47.002;8.604;2023-12-29T15:13:33;3.38;;;1.85;;
18048;SDS011;9149;47.002;8.604;2023-12-29T15:16:01;2.53;;;1.75;;
18048;SDS011;9149;47.002;8.604;2023-12-29T15:18:30;2.80;;;1.55;;
18048;SDS011;9149;47.002;8.604;2023-12-29T15:20:58;2.40;;;1.70;;
18048;SDS011;9149;47.002;8.604;2023-12-29T15:23:26;15.02;;;1.65;;